Kezdőlap
METAR-TAF:

METAR-TAF

Repülőterek :

N’Djamena, Csád

földrajzi szélesség: 12-08N, földrajzi hosszúság: 015-02E, magasság: 295 m

Jelenlegi meteorológiai megfigyelések

A jelentés 43 perccel ezelõtt készült, 15:00 UTC
Északi szél 9 kt
Hőmérséklet 33°C
Páratartalom 9%
Légköri nyomás 1010 hPa
Látótávolság 10 km, vagy több
felhőtlen 1500 m magasságban, és nincs gomolyfelhõ

METAR: FTTJ 151500Z 35009KT CAVOK 33/M04 Q1010 NOSIG

Idő: 16:43 (15:43 UTC)

Előrejelzés

A jelentés 4 órával és 43 perccel ezelõtt készült, 11:00 UTC
Az előrejelzés 15-én 12 óra UTC és 16-én 18 óra UTC között érvényes
Északi szél 8 kt
Látótávolság: 8000 m
15-én 16 óra UTC és 15-én 19 óra UTC között ideiglenes
Látótávolság: 4000 m
Száraz légköri homály
16-én 07 óra UTC és 16-én 12 óra UTC között ideiglenes
Kelet-északkeleti szél 14 kt

TAF: FTTJ 151100Z 1512/1618 36008KT 8000 NSC TEMPO 1516/1519 4000 HZ TEMPO 1607/1612 06014KT

Meteorológiai megfigyelések és előrejelzések több, mint 4000 repülőtéren (METAR és TAF jelentéseket).

A térképen piros és sárga pontok jelzik az elérhető meteorológiai állomásokat.

Mozgassa az egeret a pont fölött, hogy megjelenjen az állomás neve.

Azután kattintson az időjárási megfigyelések és előrejelzések megtekintéséhez.

A térkép megváltoztatása: kattintson a fekete keresztel jelölt zöld gombra ráközelítéshez, a vonallal jelölt zöld gombra távolításhoz, vagy a zöld nyilakra a szomszédos térképek eléréséhez.


METAR-TAF: